CDT,Max TemperatureF,Mean TemperatureF,Min TemperatureF,Max Dew PointF,MeanDew PointF,Min DewpointF,Max Humidity, Mean Humidity, Min Humidity, Max Sea Level PressureIn, Mean Sea Level PressureIn, Min Sea Level PressureIn, Max VisibilityMiles, Mean VisibilityMiles, Min VisibilityMiles, Max Wind SpeedMPH, Mean Wind SpeedMPH, Max Gust SpeedMPH,PrecipitationIn, CloudCover, Events, WindDirDegrees
2013-8-1,84,72,60,68,63,61,100,79,48,30.06,30.02,29.99,10,8,2,9,2,,0.00,1,,283
2013-8-2,78,70,62,72,67,61,100,89,74,29.99,29.96,29.93,10,9,5,13,3,16,0.00,2,,197
2013-8-3,82,71,60,68,65,57,100,79,45,30.11,30.02,29.93,10,8,2,8,3,,0.00,2,,354
2013-8-4,78,66,53,63,58,54,100,76,44,30.19,30.14,30.10,10,9,2,5,1,,0.00,1,,131
2013-8-5,78,66,55,66,60,55,100,79,51,30.11,30.01,29.90,10,10,2,14,4,18,0.00,3,,168
2013-8-6,86,75,64,73,69,64,100,89,62,29.93,29.89,29.85,10,5,0,8,2,,0.00,4,Fog,162
2013-8-7,87,78,68,75,71,68,100,88,62,29.92,29.87,29.83,10,8,0,9,4,,0.04,3,Fog-Rain-Thunderstorm,217
2013-8-8,78,72,64,73,69,64,100,94,78,29.97,29.93,29.90,10,5,0,9,2,,0.00,3,Fog,14
2013-8-9,80,70,59,68,63,57,100,82,48,30.07,30.01,29.96,10,10,7,9,3,,0.00,0,,3
2013-8-10,84,72,60,66,63,59,100,78,45,30.14,30.11,30.08,10,9,2,9,2,,0.00,0,,348
2013-8-11,84,68,53,64,59,54,100,75,42,30.15,30.12,30.06,10,10,3,8,1,,0.00,0,,7
2013-8-12,82,70,59,72,66,57,100,89,65,30.07,29.98,29.90,10,9,2,10,2,,0.93,2,Rain-Thunderstorm,219
2013-8-13,75,65,55,66,59,48,100,82,50,30.15,30.03,29.93,10,9,2,12,5,16,0.01,1,,1
2013-8-14,73,60,46,55,52,46,100,80,47,30.22,30.18,30.14,10,9,3,8,1,,0.00,1,,56
2013-8-15,75,62,48,57,52,48,100,75,38,30.19,30.15,30.10,10,9,0,10,1,16,0.00,1,Fog,71
2013-8-16,77,66,55,59,56,54,100,75,44,30.17,30.14,30.11,10,10,10,12,2,16,0.00,1,,72
2013-8-17,78,66,53,61,57,54,100,78,47,30.20,30.16,30.13,10,9,0,9,4,,0.00,0,,18
2013-8-18,84,68,53,64,60,54,100,79,45,30.18,30.13,30.09,10,9,4,8,2,,0.00,0,,9
2013-8-19,86,72,57,66,62,57,100,78,45,30.14,30.10,30.05,10,8,0,6,1,,0.00,1,Fog,156
2013-8-20,87,74,60,68,64,59,100,77,46,30.13,30.09,30.05,10,8,3,7,1,,0.00,0,,180
2013-8-21,89,76,62,70,66,63,100,78,46,30.13,30.08,30.03,10,8,3,9,2,,0.00,0,,207
2013-8-22,91,78,64,73,68,64,100,80,52,30.10,30.07,30.03,10,9,5,16,4,22,0.11,0,Rain-Thunderstorm,180
2013-8-23,89,78,66,73,70,66,100,79,52,30.13,30.10,30.08,10,9,2,8,4,,0.16,1,Rain-Thunderstorm,72
2013-8-24,91,78,66,72,68,64,100,75,46,30.23,30.19,30.13,10,9,5,8,4,,0.00,0,,119
2013-8-25,91,76,62,70,65,61,100,70,38,30.28,30.23,30.19,10,10,10,8,4,,0.00,0,,164
2013-8-26,95,82,69,79,73,64,100,77,49,30.21,30.14,30.06,10,8,1,8,4,,0.00,0,,202
2013-8-27,95,83,71,77,73,70,100,76,46,30.07,30.03,29.97,10,9,3,12,5,,0.00,0,,225
2013-8-28,96,84,71,77,71,66,94,68,44,30.01,29.98,29.96,10,10,10,14,7,17,0.00,0,,252
2013-8-29,93,83,73,79,75,72,100,83,59,30.06,30.01,29.98,10,7,2,8,2,,0.00,0,,68
2013-8-30,100,86,71,79,75,72,100,76,42,29.98,29.90,29.82,10,8,2,10,2,,0.00,0,,223
2013-8-31,100,86,73,79,73,64,100,68,42,29.86,29.81,29.74,10,10,7,13,7,32,0.02,1,Rain,191